Time;durP1;ratioP1;P1;durP2;ratioP2;P2;SDS_P1;SDS_P2;PMS_P1;PMS_P2;Temp;Humidity;BMP_temperature;BMP_pressure;BME280_temperature;BME280_humidity;BME280_pressure;Samples;Min_cycle;Max_cycle;Signal;HPM_P1;HPM_P2
2021/07/01 00:01:34;;;;;;;32.00;18.37;;;15.50;99.90;;;;;;5014193;28;20437;-89
2021/07/01 00:04:00;;;;;;;28.47;15.90;;;15.50;99.90;;;;;;5014086;28;20177;-89
2021/07/01 00:06:25;;;;;;;23.10;15.50;;;15.50;99.90;;;;;;5027502;28;20237;-90
2021/07/01 00:08:51;;;;;;;25.50;16.63;;;15.60;99.90;;;;;;5033110;28;20578;-87
2021/07/01 00:11:17;;;;;;;19.50;14.27;;;15.50;99.90;;;;;;5033066;28;20181;-87
2021/07/01 00:13:42;;;;;;;18.17;14.73;;;15.50;99.90;;;;;;5033058;28;20176;-87
2021/07/01 00:16:08;;;;;;;23.93;16.60;;;15.50;99.90;;;;;;5033228;28;20174;-88
2021/07/01 00:18:33;;;;;;;25.23;14.63;;;15.60;99.90;;;;;;5033413;28;20293;-88
2021/07/01 00:20:59;;;;;;;22.37;14.83;;;15.50;99.90;;;;;;5033502;28;20248;-89
2021/07/01 00:23:25;;;;;;;22.03;13.80;;;15.50;99.90;;;;;;5029647;28;20178;-88
2021/07/01 00:25:50;;;;;;;21.63;13.10;;;15.50;99.90;;;;;;5032903;28;20639;-91
2021/07/01 00:28:16;;;;;;;17.13;12.53;;;15.50;99.90;;;;;;5032537;28;20232;-90
2021/07/01 00:30:41;;;;;;;16.77;12.10;;;15.50;99.90;;;;;;5032724;28;20236;-89
2021/07/01 00:33:08;;;;;;;16.03;12.13;;;15.50;99.90;;;;;;5033426;28;20241;-89
2021/07/01 00:35:33;;;;;;;16.73;10.87;;;15.50;99.90;;;;;;5032119;28;20201;-89
2021/07/01 00:37:59;;;;;;;14.10;10.23;;;15.50;99.90;;;;;;5033017;28;20458;-91
2021/07/01 00:40:24;;;;;;;14.90;9.40;;;15.50;99.90;;;;;;5032523;28;20174;-88
2021/07/01 00:42:50;;;;;;;12.43;9.53;;;15.40;99.90;;;;;;5034052;28;20170;-92
2021/07/01 00:45:15;;;;;;;15.50;9.93;;;15.50;99.90;;;;;;5033335;28;20182;-92
2021/07/01 00:47:42;;;;;;;15.97;10.77;;;15.50;99.90;;;;;;5032863;28;20173;-89
2021/07/01 00:50:10;;;;;;;11.67;9.43;;;15.40;99.90;;;;;;5031813;28;20181;-86
2021/07/01 00:52:37;;;;;;;13.93;8.90;;;15.50;99.90;;;;;;5032712;28;20441;-91
2021/07/01 00:55:09;;;;;;;8.80;6.40;;;15.50;99.90;;;;;;5018782;28;20723;-92
2021/07/01 00:57:35;;;;;;;9.50;7.33;;;15.40;99.90;;;;;;5021619;28;20468;-87
2021/07/01 01:00:05;;;;;;;12.20;7.27;;;15.40;99.90;;;;;;5035686;28;20427;-90
2021/07/01 01:02:31;;;;;;;11.13;7.07;;;15.40;99.90;;;;;;5035509;28;20428;-89
2021/07/01 01:05:01;;;;;;;9.27;6.97;;;15.40;99.90;;;;;;5026687;28;20425;-89
2021/07/01 01:07:33;;;;;;;9.47;6.80;;;15.40;99.90;;;;;;5035228;28;20202;-88
2021/07/01 01:09:59;;;;;;;8.60;7.27;;;15.30;99.90;;;;;;5037966;28;20634;-89
2021/07/01 01:12:24;;;;;;;7.17;5.20;;;15.30;99.90;;;;;;5018766;28;20480;-90
2021/07/01 01:14:51;;;;;;;9.40;6.97;;;15.40;99.90;;;;;;5035168;28;20623;-89
2021/07/01 01:17:18;;;;;;;6.87;5.07;;;15.30;99.90;;;;;;5035075;28;20328;-87
2021/07/01 01:19:50;;;;;;;5.77;5.10;;;15.30;99.90;;;;;;5035479;28;20792;-87
2021/07/01 01:22:16;;;;;;;7.30;5.70;;;15.30;99.90;;;;;;5018290;28;20994;-85
2021/07/01 01:24:48;;;;;;;8.33;6.57;;;15.30;99.90;;;;;;5033828;28;20464;-85
2021/07/01 01:27:14;;;;;;;7.90;6.07;;;15.30;99.90;;;;;;5034294;28;20222;-86
2021/07/01 01:29:41;;;;;;;8.37;6.47;;;15.30;99.90;;;;;;5034601;28;20943;-87
2021/07/01 01:32:08;;;;;;;9.50;6.20;;;15.30;99.90;;;;;;5035741;28;20265;-87
2021/07/01 01:34:36;;;;;;;10.30;7.23;;;15.30;99.90;;;;;;5035476;28;20503;-87
2021/07/01 01:37:03;;;;;;;10.40;7.27;;;15.30;99.90;;;;;;5032451;28;20424;-87
2021/07/01 01:39:31;;;;;;;10.17;8.23;;;15.30;99.90;;;;;;5006646;28;20845;-88
2021/07/01 01:42:04;;;;;;;9.47;7.83;;;15.40;99.90;;;;;;5023250;28;20474;-84
2021/07/01 01:44:31;;;;;;;12.80;7.83;;;15.40;99.90;;;;;;5018283;28;20420;-88
2021/07/01 01:47:01;;;;;;;11.13;8.80;;;15.40;99.90;;;;;;5035938;28;20932;-91
2021/07/01 01:49:28;;;;;;;10.97;7.67;;;15.40;99.90;;;;;;5024469;28;20422;-88
2021/07/01 01:51:53;;;;;;;12.30;9.33;;;15.40;99.90;;;;;;5018211;28;20437;-93
2021/07/01 01:54:20;;;;;;;10.83;8.70;;;15.40;99.90;;;;;;5029688;28;20517;-90
2021/07/01 01:56:46;;;;;;;14.07;9.70;;;15.30;99.90;;;;;;5034429;28;20185;-90
2021/07/01 01:59:14;;;;;;;11.03;9.70;;;15.30;99.90;;;;;;5026753;28;20509;-90
2021/07/01 02:01:40;;;;;;;12.30;9.63;;;15.30;99.90;;;;;;5034474;28;20222;-89
2021/07/01 02:04:06;;;;;;;12.30;10.03;;;15.40;99.90;;;;;;5035684;28;20421;-89
2021/07/01 02:06:33;;;;;;;9.97;8.33;;;15.40;99.90;;;;;;5034234;28;20458;-88
2021/07/01 02:09:03;;;;;;;10.90;8.17;;;15.40;99.90;;;;;;5035142;28;20211;-88
2021/07/01 02:11:29;;;;;;;13.33;8.97;;;15.40;99.90;;;;;;5035888;28;20492;-92
2021/07/01 02:13:54;;;;;;;11.83;9.90;;;15.30;99.90;;;;;;5035935;28;20494;-89
2021/07/01 02:16:20;;;;;;;11.73;9.90;;;15.30;99.90;;;;;;5036015;28;20178;-93
2021/07/01 02:18:49;;;;;;;13.60;11.37;;;15.30;99.90;;;;;;5035152;28;20216;-92
2021/07/01 02:21:14;;;;;;;13.37;10.70;;;15.30;99.90;;;;;;5036101;28;20171;-89
2021/07/01 02:23:40;;;;;;;14.70;11.70;;;15.30;99.90;;;;;;5035529;28;20414;-90
2021/07/01 02:26:05;;;;;;;14.43;11.37;;;15.30;99.90;;;;;;5035769;28;20194;-90
2021/07/01 02:28:31;;;;;;;15.47;12.57;;;15.40;99.90;;;;;;5035996;28;20236;-90
2021/07/01 02:30:57;;;;;;;14.87;11.37;;;15.30;99.90;;;;;;5034665;28;20178;-92
2021/07/01 02:33:22;;;;;;;16.30;11.70;;;15.40;99.90;;;;;;5035799;28;20166;-90
2021/07/01 02:35:48;;;;;;;13.60;11.70;;;15.30;99.90;;;;;;5035454;28;20183;-88
2021/07/01 02:38:13;;;;;;;16.07;11.83;;;15.30;99.90;;;;;;5035187;28;20206;-93
2021/07/01 02:40:39;;;;;;;18.13;12.63;;;15.40;99.90;;;;;;5049547;28;20174;-91
2021/07/01 02:43:05;;;;;;;12.50;10.13;;;15.30;99.90;;;;;;5035880;28;20657;-92
2021/07/01 02:45:31;;;;;;;15.10;10.77;;;15.30;99.90;;;;;;5034701;28;20623;-91
2021/07/01 02:47:57;;;;;;;14.40;11.63;;;15.40;99.90;;;;;;5034409;28;20182;-84
2021/07/01 02:50:22;;;;;;;19.57;11.73;;;15.50;99.90;;;;;;5035578;28;20209;-91
2021/07/01 02:52:48;;;;;;;15.53;11.87;;;15.40;99.90;;;;;;5035260;28;20547;-90
2021/07/01 02:55:14;;;;;;;14.80;10.80;;;15.30;99.90;;;;;;5035967;28;20261;-91
2021/07/01 02:57:39;;;;;;;16.37;10.90;;;15.30;99.90;;;;;;5035306;28;20198;-90
2021/07/01 03:00:09;;;;;;;13.07;10.73;;;15.30;99.90;;;;;;5034009;28;20575;-92
2021/07/01 03:02:34;;;;;;;13.77;10.23;;;15.40;99.90;;;;;;5035120;28;20175;-89
2021/07/01 03:05:00;;;;;;;13.10;9.80;;;15.40;99.90;;;;;;5034986;28;20426;-90
2021/07/01 03:07:26;;;;;;;12.30;9.83;;;15.30;99.90;;;;;;5033760;28;20661;-86
2021/07/01 03:09:51;;;;;;;13.03;9.40;;;15.30;99.90;;;;;;5034858;28;20417;-89
2021/07/01 03:12:17;;;;;;;12.30;9.20;;;15.40;99.90;;;;;;5034747;28;20177;-91
2021/07/01 03:14:43;;;;;;;12.23;9.37;;;15.30;99.90;;;;;;5033519;28;20179;-88
2021/07/01 03:17:08;;;;;;;12.93;9.60;;;15.40;99.90;;;;;;5034317;28;20170;-90
2021/07/01 03:19:34;;;;;;;13.20;9.63;;;15.30;99.90;;;;;;5034450;28;20298;-93
2021/07/01 03:21:59;;;;;;;13.60;10.73;;;15.30;99.90;;;;;;5034302;28;20182;-89
2021/07/01 03:24:25;;;;;;;10.40;7.50;;;15.30;99.90;;;;;;5034887;28;20258;-90
2021/07/01 03:26:51;;;;;;;10.93;8.80;;;15.20;99.90;;;;;;5034277;28;20667;-93
2021/07/01 03:29:16;;;;;;;11.10;8.57;;;15.30;99.90;;;;;;5034263;28;20257;-89
2021/07/01 03:31:42;;;;;;;11.80;9.70;;;15.30;99.90;;;;;;5034161;28;20199;-92
2021/07/01 03:34:07;;;;;;;9.53;8.27;;;15.20;99.90;;;;;;5034263;28;20171;-89
2021/07/01 03:36:33;;;;;;;11.83;8.17;;;15.20;99.90;;;;;;5034116;28;20249;-91
2021/07/01 03:39:02;;;;;;;9.30;7.53;;;15.20;99.90;;;;;;5033548;28;20218;-90
2021/07/01 03:41:30;;;;;;;8.60;6.33;;;15.20;99.90;;;;;;5033920;28;20170;-89
2021/07/01 03:43:55;;;;;;;7.00;6.30;;;15.20;99.90;;;;;;5033658;28;20452;-87
2021/07/01 03:46:21;;;;;;;7.83;5.43;;;15.20;99.90;;;;;;5033560;28;20446;-89
2021/07/01 03:48:46;;;;;;;6.83;4.93;;;15.20;99.90;;;;;;5033471;28;20749;-88
2021/07/01 03:51:12;;;;;;;7.47;4.37;;;15.10;99.90;;;;;;5034255;28;20174;-89
2021/07/01 03:53:37;;;;;;;8.10;4.70;;;15.20;99.90;;;;;;5033988;28;20277;-88
2021/07/01 03:56:03;;;;;;;5.87;4.10;;;15.10;99.90;;;;;;5034281;28;20180;-86
2021/07/01 03:58:29;;;;;;;7.10;5.60;;;15.10;99.90;;;;;;5040519;28;20206;-85
2021/07/01 04:00:55;;;;;;;9.27;7.30;;;15.10;99.90;;;;;;5051332;28;20444;-89
2021/07/01 04:03:20;;;;;;;8.87;6.83;;;15.10;99.90;;;;;;5034557;28;20213;-87
2021/07/01 04:05:46;;;;;;;8.00;6.40;;;15.10;99.90;;;;;;5035379;28;20170;-88
2021/07/01 04:08:11;;;;;;;11.60;10.43;;;15.20;99.90;;;;;;5036824;28;20245;-92
2021/07/01 04:10:37;;;;;;;12.67;10.57;;;15.20;99.90;;;;;;5041379;28;20182;-87
2021/07/01 04:13:02;;;;;;;13.73;11.17;;;15.10;99.90;;;;;;5041199;28;20634;-88
2021/07/01 04:15:28;;;;;;;14.83;13.20;;;15.10;99.90;;;;;;5036743;28;20189;-89
2021/07/01 04:17:54;;;;;;;18.57;14.57;;;15.10;99.90;;;;;;5033646;28;20331;-88
2021/07/01 04:20:19;;;;;;;18.10;14.47;;;15.10;99.90;;;;;;5033766;28;20174;-87
2021/07/01 04:22:45;;;;;;;16.87;13.67;;;15.10;99.90;;;;;;5033445;28;20174;-84
2021/07/01 04:25:11;;;;;;;22.03;16.53;;;15.10;99.90;;;;;;5034420;28;20759;-89
2021/07/01 04:27:37;;;;;;;17.33;13.83;;;15.20;99.90;;;;;;5033035;28;20224;-87
2021/07/01 04:30:04;;;;;;;14.10;12.10;;;15.20;99.90;;;;;;5032284;28;20409;-88
2021/07/01 04:32:29;;;;;;;10.30;9.13;;;15.20;99.90;;;;;;5032929;28;20244;-88
2021/07/01 04:34:55;;;;;;;11.53;9.50;;;15.20;99.90;;;;;;5032940;28;20413;-88
2021/07/01 04:37:21;;;;;;;12.83;8.80;;;15.20;99.90;;;;;;5032659;28;20534;-89
2021/07/01 04:39:46;;;;;;;10.40;7.20;;;15.20;99.90;;;;;;5032916;28;20174;-87
2021/07/01 04:42:12;;;;;;;7.90;7.10;;;15.10;99.90;;;;;;5032828;28;20253;-86
2021/07/01 04:44:38;;;;;;;7.00;5.27;;;15.20;99.90;;;;;;5032804;28;20570;-89
2021/07/01 04:47:04;;;;;;;9.43;6.90;;;15.20;99.90;;;;;;5031913;28;20440;-86
2021/07/01 04:49:29;;;;;;;7.80;6.10;;;15.20;99.90;;;;;;5032541;28;20217;-87
2021/07/01 04:51:55;;;;;;;12.67;6.77;;;15.20;99.90;;;;;;5032459;28;20166;-88
2021/07/01 04:54:20;;;;;;;7.10;5.50;;;15.20;99.90;;;;;;5032559;28;20163;-87
2021/07/01 04:56:46;;;;;;;6.40;5.13;;;15.20;99.90;;;;;;5032715;28;20213;-88
2021/07/01 04:59:14;;;;;;;6.60;4.97;;;15.10;99.90;;;;;;5032700;28;20220;-88
2021/07/01 05:01:40;;;;;;;9.20;5.23;;;15.30;99.90;;;;;;5032823;28;20936;-87
2021/07/01 05:04:11;;;;;;;8.03;5.50;;;15.30;99.90;;;;;;5032718;28;20503;-88
2021/07/01 05:06:38;;;;;;;7.20;5.23;;;15.30;99.90;;;;;;5032732;28;20162;-86
2021/07/01 05:09:08;;;;;;;6.33;5.33;;;15.30;99.90;;;;;;5032452;28;20405;-88
2021/07/01 05:11:35;;;;;;;5.67;5.07;;;15.30;99.90;;;;;;5032642;28;20443;-86
2021/07/01 05:14:02;;;;;;;9.13;6.17;;;15.30;99.90;;;;;;5032668;28;20409;-89
2021/07/01 05:16:28;;;;;;;8.60;4.80;;;15.30;99.90;;;;;;5033268;28;20409;-89
2021/07/01 05:18:56;;;;;;;8.13;6.90;;;15.30;99.90;;;;;;5033106;28;20514;-88
2021/07/01 05:21:22;;;;;;;6.73;4.93;;;15.30;99.90;;;;;;5033168;28;20405;-91
2021/07/01 05:23:48;;;;;;;6.93;6.07;;;15.30;99.90;;;;;;5031722;28;20433;-91
2021/07/01 05:26:13;;;;;;;7.57;5.83;;;15.30;99.90;;;;;;5033202;28;20166;-89
2021/07/01 05:28:39;;;;;;;10.60;6.90;;;15.30;99.90;;;;;;5032631;28;20708;-88
2021/07/01 05:31:04;;;;;;;8.13;6.43;;;15.50;99.90;;;;;;5032448;28;20221;-88
2021/07/01 05:33:30;;;;;;;8.40;6.50;;;15.40;99.90;;;;;;5032463;28;20194;-89
2021/07/01 05:35:56;;;;;;;7.83;6.07;;;15.40;99.90;;;;;;5032558;28;20254;-89
2021/07/01 05:38:21;;;;;;;6.60;5.90;;;15.40;99.90;;;;;;5031973;28;20206;-88
2021/07/01 05:40:47;;;;;;;9.60;7.00;;;15.50;99.90;;;;;;5033920;28;20575;-87
2021/07/01 05:43:13;;;;;;;8.33;6.70;;;15.40;99.90;;;;;;5039529;28;20249;-89
2021/07/01 05:45:38;;;;;;;7.83;6.57;;;15.40;99.90;;;;;;5036384;28;20647;-90
2021/07/01 05:48:06;;;;;;;8.73;5.87;;;15.40;99.90;;;;;;5036489;28;20170;-91
2021/07/01 05:50:34;;;;;;;6.20;5.57;;;15.50;99.90;;;;;;5036784;28;20257;-90
2021/07/01 05:53:06;;;;;;;6.63;4.60;;;15.50;99.90;;;;;;5036270;28;20421;-88
2021/07/01 05:55:31;;;;;;;4.73;4.23;;;15.50;99.90;;;;;;5036028;28;20425;-89
2021/07/01 05:57:57;;;;;;;5.50;3.43;;;15.50;99.90;;;;;;5035547;28;20548;-89
2021/07/01 06:00:24;;;;;;;5.33;2.70;;;15.50;99.90;;;;;;5035519;28;20175;-87
2021/07/01 06:02:50;;;;;;;5.83;3.73;;;15.50;99.90;;;;;;5027565;28;20515;-89
2021/07/01 06:05:15;;;;;;;6.20;4.10;;;15.60;99.90;;;;;;5026147;28;20467;-90
2021/07/01 06:07:46;;;;;;;5.00;3.50;;;15.60;99.90;;;;;;5031661;28;20184;-88
2021/07/01 06:10:16;;;;;;;5.10;3.70;;;15.60;99.90;;;;;;5023167;28;20656;-88
2021/07/01 06:12:42;;;;;;;4.07;3.17;;;15.60;99.90;;;;;;5028716;28;20441;-91
2021/07/01 06:15:08;;;;;;;4.70;2.47;;;15.60;99.90;;;;;;5010538;28;20426;-86
2021/07/01 06:17:33;;;;;;;4.60;3.77;;;15.50;99.90;;;;;;5028990;28;20942;-86
2021/07/01 06:20:08;;;;;;;6.90;2.90;;;15.50;99.90;;;;;;5033709;28;20433;-85
2021/07/01 06:22:36;;;;;;;6.37;4.37;;;15.50;99.90;;;;;;5023285;28;20644;-88
2021/07/01 06:25:02;;;;;;;5.30;3.10;;;15.60;99.90;;;;;;5027972;28;20467;-85
2021/07/01 06:27:47;;;;;;;4.70;3.60;;;15.50;99.90;;;;;;5031605;28;20473;-86
2021/07/01 06:30:18;;;;;;;4.80;2.90;;;15.60;99.90;;;;;;5035148;28;20496;-86
2021/07/01 06:32:45;;;;;;;6.20;3.10;;;15.70;99.90;;;;;;5032877;28;20807;-88
2021/07/01 06:35:15;;;;;;;3.77;2.07;;;15.70;99.90;;;;;;5028305;28;20434;-87
2021/07/01 06:37:42;;;;;;;4.17;3.00;;;15.70;99.90;;;;;;5032416;28;21052;-86
2021/07/01 06:40:10;;;;;;;5.03;2.40;;;15.80;99.90;;;;;;5033372;28;20418;-86
2021/07/01 06:42:46;;;;;;;3.43;2.53;;;15.90;99.90;;;;;;5033352;28;21222;-86
2021/07/01 06:45:13;;;;;;;3.17;1.90;;;16.00;99.90;;;;;;5030563;28;20426;-88
2021/07/01 06:47:44;;;;;;;2.80;2.50;;;16.00;99.90;;;;;;5032323;28;20426;-86
2021/07/01 06:50:11;;;;;;;3.00;1.60;;;16.00;99.90;;;;;;5032508;28;20434;-85
2021/07/01 06:52:37;;;;;;;2.40;1.90;;;16.00;99.90;;;;;;5030312;28;20434;-87
2021/07/01 06:55:03;;;;;;;4.57;3.57;;;16.10;99.90;;;;;;5031661;28;20436;-89
2021/07/01 06:57:29;;;;;;;6.23;4.57;;;16.20;99.90;;;;;;5023198;28;20499;-87
2021/07/01 06:59:55;;;;;;;4.43;4.03;;;16.10;99.90;;;;;;5032617;28;20458;-88
2021/07/01 07:02:22;;;;;;;6.30;5.50;;;16.10;99.90;;;;;;5032326;28;20417;-88
2021/07/01 07:04:48;;;;;;;5.93;5.43;;;16.10;99.90;;;;;;5032467;28;20529;-90
2021/07/01 07:07:14;;;;;;;5.77;5.17;;;16.20;99.90;;;;;;5031044;28;20509;-88
2021/07/01 07:09:40;;;;;;;5.80;4.73;;;16.20;99.90;;;;;;5032472;28;20175;-90
2021/07/01 07:12:06;;;;;;;5.83;5.23;;;16.20;99.90;;;;;;5033342;28;20423;-86
2021/07/01 07:14:31;;;;;;;5.37;4.87;;;16.20;99.90;;;;;;5033522;28;20548;-84
2021/07/01 07:16:58;;;;;;;4.77;4.20;;;16.20;99.90;;;;;;5032163;28;20170;-88
2021/07/01 07:19:27;;;;;;;5.30;4.80;;;16.20;99.90;;;;;;5029435;28;20207;-83
2021/07/01 07:21:53;;;;;;;5.20;4.70;;;16.20;99.90;;;;;;5031645;28;20485;-86
2021/07/01 07:24:20;;;;;;;4.40;4.00;;;16.20;99.90;;;;;;5032409;28;20462;-87
2021/07/01 07:26:51;;;;;;;3.77;2.80;;;16.20;99.90;;;;;;5032247;28;20508;-87
2021/07/01 07:29:17;;;;;;;5.13;4.60;;;16.20;99.90;;;;;;5032761;28;20496;-87
2021/07/01 07:31:45;;;;;;;7.30;4.40;;;16.20;99.90;;;;;;5032049;28;20414;-87
2021/07/01 07:34:10;;;;;;;4.97;4.30;;;16.30;99.90;;;;;;5031887;28;20923;-87
2021/07/01 07:36:36;;;;;;;5.50;4.43;;;16.30;99.90;;;;;;5032121;28;20428;-86
2021/07/01 07:39:04;;;;;;;5.20;4.23;;;16.20;99.90;;;;;;5032340;28;20225;-86
2021/07/01 07:41:30;;;;;;;4.80;4.30;;;16.30;99.90;;;;;;5032403;28;20406;-87
2021/07/01 07:43:56;;;;;;;5.00;4.43;;;16.40;99.90;;;;;;5032124;28;20433;-87
2021/07/01 07:46:24;;;;;;;6.07;4.43;;;16.40;99.90;;;;;;5034352;28;20168;-92
2021/07/01 07:48:50;;;;;;;4.20;3.43;;;16.40;99.90;;;;;;5033065;28;20179;-88
2021/07/01 07:51:20;;;;;;;3.50;3.03;;;16.40;99.90;;;;;;5030822;28;20537;-88
2021/07/01 07:53:48;;;;;;;5.10;4.00;;;16.30;99.90;;;;;;5015062;28;20487;-89
2021/07/01 07:56:16;;;;;;;3.60;3.30;;;16.40;99.90;;;;;;5013023;28;20420;-89
2021/07/01 07:58:48;;;;;;;4.90;4.40;;;16.40;99.90;;;;;;5012219;28;20471;-89
2021/07/01 08:01:14;;;;;;;5.63;4.37;;;16.40;99.90;;;;;;5020233;28;20424;-88
2021/07/01 08:03:42;;;;;;;6.60;4.37;;;16.30;99.90;;;;;;5016764;28;20420;-88
2021/07/01 08:06:09;;;;;;;4.73;4.33;;;16.30;99.90;;;;;;5031228;28;20526;-88
2021/07/01 08:08:42;;;;;;;5.10;4.60;;;16.30;99.90;;;;;;5032672;28;20425;-88
2021/07/01 08:11:10;;;;;;;5.23;4.73;;;16.30;99.90;;;;;;5031909;28;20433;-88
2021/07/01 08:13:37;;;;;;;5.80;4.63;;;16.40;99.90;;;;;;5031907;28;20435;-88
2021/07/01 08:16:06;;;;;;;5.47;4.83;;;16.60;99.90;;;;;;5031835;28;20442;-88
2021/07/01 08:18:43;;;;;;;7.50;6.90;;;16.60;99.90;;;;;;5031656;28;20475;-88
2021/07/01 08:21:11;;;;;;;6.90;6.20;;;16.70;99.90;;;;;;5032848;28;20411;-89
2021/07/01 08:23:39;;;;;;;6.80;6.13;;;16.80;99.90;;;;;;5032324;28;20552;-89
2021/07/01 08:26:04;;;;;;;6.50;5.60;;;16.90;99.90;;;;;;5032315;28;20435;-88
2021/07/01 08:28:31;;;;;;;5.87;5.30;;;16.80;99.90;;;;;;5016785;28;20602;-88
2021/07/01 08:30:59;;;;;;;8.43;6.37;;;17.00;99.90;;;;;;5030463;28;20176;-88
2021/07/01 08:33:33;;;;;;;7.03;6.20;;;17.00;99.90;;;;;;5023574;28;20442;-88
2021/07/01 08:36:00;;;;;;;8.80;7.87;;;17.10;99.90;;;;;;5027244;28;20433;-89
2021/07/01 08:38:26;;;;;;;10.00;7.63;;;17.20;99.90;;;;;;5030655;28;20571;-88
2021/07/01 08:40:58;;;;;;;8.37;7.57;;;17.30;99.90;;;;;;5031700;28;20833;-87
2021/07/01 08:43:34;;;;;;;9.63;8.70;;;17.50;99.90;;;;;;5032735;28;20182;-89
2021/07/01 08:46:13;;;;;;;10.57;9.67;;;17.30;99.90;;;;;;5032753;28;20412;-88
2021/07/01 08:49:01;;;;;;;11.07;10.07;;;17.40;99.90;;;;;;5030192;28;20780;-88
2021/07/01 08:51:35;;;;;;;11.57;10.40;;;17.40;99.90;;;;;;5031695;28;20902;-89
2021/07/01 08:54:21;;;;;;;11.43;10.30;;;17.40;99.90;;;;;;5028446;28;20412;-90
2021/07/01 08:56:48;;;;;;;12.13;10.63;;;17.60;99.90;;;;;;5047770;28;20431;-89
2021/07/01 08:59:20;;;;;;;11.17;10.17;;;17.80;99.90;;;;;;5015772;28;21015;-90
2021/07/01 09:02:01;;;;;;;11.20;10.30;;;17.90;99.90;;;;;;5026202;28;20415;-92
2021/07/01 09:04:37;;;;;;;11.17;10.20;;;18.00;99.90;;;;;;5025598;28;20446;-91
2021/07/01 09:07:04;;;;;;;10.70;9.60;;;18.00;99.90;;;;;;5024148;28;20411;-91
2021/07/01 09:09:35;;;;;;;11.20;10.30;;;18.10;99.90;;;;;;5032379;28;20427;-90
2021/07/01 09:12:07;;;;;;;10.90;9.73;;;17.90;99.90;;;;;;5029460;28;20589;-89
2021/07/01 09:14:33;;;;;;;10.63;9.63;;;18.00;99.90;;;;;;5033109;28;20430;-89
2021/07/01 09:17:11;;;;;;;10.73;9.77;;;17.90;99.90;;;;;;5017719;28;20413;-89
2021/07/01 09:19:38;;;;;;;10.07;9.17;;;17.90;99.90;;;;;;5035118;28;20482;-90
2021/07/01 09:22:04;;;;;;;11.10;10.10;;;17.70;99.90;;;;;;5032047;28;21983;-91
2021/07/01 09:24:35;;;;;;;10.77;9.87;;;17.70;99.90;;;;;;5033618;28;20933;-90
2021/07/01 09:27:07;;;;;;;11.97;10.97;;;17.70;99.90;;;;;;5036300;28;20441;-91
2021/07/01 09:29:34;;;;;;;12.40;11.30;;;17.60;99.90;;;;;;5032646;28;20442;-91
2021/07/01 09:32:00;;;;;;;12.20;11.20;;;17.60;99.90;;;;;;5035481;28;20516;-90
2021/07/01 09:34:27;;;;;;;12.17;11.07;;;17.60;99.90;;;;;;5035357;28;20412;-90
2021/07/01 09:36:56;;;;;;;12.53;11.43;;;17.70;99.90;;;;;;5035585;28;20418;-91
2021/07/01 09:39:24;;;;;;;11.40;9.63;;;17.80;99.90;;;;;;5035256;28;20483;-91
2021/07/01 09:41:50;;;;;;;12.73;11.50;;;17.80;99.90;;;;;;5036235;28;20460;-90
2021/07/01 09:44:18;;;;;;;12.07;11.07;;;17.70;99.90;;;;;;5034626;28;20421;-91
2021/07/01 09:46:48;;;;;;;13.40;12.20;;;17.80;99.90;;;;;;5034506;28;20179;-90
2021/07/01 09:49:19;;;;;;;11.07;10.10;;;17.70;99.90;;;;;;5035793;28;20785;-91
2021/07/01 09:51:48;;;;;;;12.43;11.30;;;17.70;99.90;;;;;;5033771;28;20710;-90
2021/07/01 09:54:15;;;;;;;12.63;11.33;;;17.90;99.90;;;;;;5035217;28;20912;-90
2021/07/01 09:56:42;;;;;;;12.37;11.27;;;18.00;99.90;;;;;;5034922;28;20488;-90
2021/07/01 09:59:26;;;;;;;12.73;11.23;;;18.10;99.90;;;;;;5034029;28;21004;-90
2021/07/01 10:01:52;;;;;;;10.73;9.73;;;18.20;99.90;;;;;;5035135;28;20426;-91
2021/07/01 10:04:18;;;;;;;11.00;9.77;;;18.20;99.90;;;;;;5034134;28;20409;-91
2021/07/01 10:06:44;;;;;;;11.67;10.67;;;18.20;99.90;;;;;;5034541;28;20271;-92
2021/07/01 10:09:28;;;;;;;11.47;10.47;;;18.20;99.90;;;;;;5034000;28;20193;-90
2021/07/01 10:11:54;;;;;;;10.93;9.93;;;18.20;99.90;;;;;;5033646;28;20173;-90
2021/07/01 10:14:22;;;;;;;12.10;10.90;;;18.20;99.90;;;;;;5042290;28;20426;-90
2021/07/01 10:16:49;;;;;;;12.37;11.27;;;18.30;99.90;;;;;;5035055;28;20507;-91
2021/07/01 10:19:21;;;;;;;10.83;9.83;;;18.20;99.90;;;;;;5033872;28;20482;-90
2021/07/01 10:22:03;;;;;;;10.57;9.60;;;18.30;99.90;;;;;;5032557;28;20507;-90
2021/07/01 10:24:30;;;;;;;12.20;11.00;;;18.40;99.90;;;;;;5032959;28;20437;-89
2021/07/01 10:26:56;;;;;;;11.73;10.73;;;18.50;99.90;;;;;;5022887;28;20491;-89
2021/07/01 10:29:34;;;;;;;12.90;10.73;;;18.40;99.90;;;;;;5029762;28;20838;-89
2021/07/01 10:32:04;;;;;;;12.17;11.07;;;18.30;99.90;;;;;;5013790;28;20438;-88
2021/07/01 10:34:30;;;;;;;13.07;10.80;;;18.20;99.90;;;;;;5014379;28;20945;-92
2021/07/01 10:37:25;;;;;;;13.10;11.77;;;18.20;99.90;;;;;;5015227;28;20429;-89
2021/07/01 10:39:52;;;;;;;13.40;12.17;;;18.20;99.90;;;;;;5015853;28;20542;-91
2021/07/01 10:42:18;;;;;;;13.50;12.17;;;18.40;99.90;;;;;;5014115;28;20523;-90
2021/07/01 10:44:45;;;;;;;12.37;11.27;;;18.50;99.90;;;;;;5015194;28;20444;-89
2021/07/01 10:47:30;;;;;;;12.53;11.20;;;18.50;99.90;;;;;;5013153;28;20464;-90
2021/07/01 10:49:58;;;;;;;12.57;11.37;;;18.60;99.90;;;;;;5013248;28;20438;-90
2021/07/01 10:52:41;;;;;;;12.23;11.03;;;18.70;99.90;;;;;;5012879;28;20444;-91
2021/07/01 10:55:07;;;;;;;11.67;10.20;;;18.70;99.90;;;;;;5029857;28;20477;-90
2021/07/01 10:57:34;;;;;;;11.77;10.77;;;18.80;99.90;;;;;;5013215;28;20427;-91
2021/07/01 11:00:00;;;;;;;12.67;11.47;;;18.90;99.90;;;;;;5013121;28;20441;-91
2021/07/01 11:02:31;;;;;;;10.83;9.73;;;19.10;99.90;;;;;;5029487;28;20983;-89
2021/07/01 11:05:02;;;;;;;11.47;10.37;;;19.20;99.90;;;;;;5012743;28;20429;-90
2021/07/01 11:07:43;;;;;;;9.50;8.60;;;19.30;99.90;;;;;;5012482;28;20418;-90
2021/07/01 11:10:10;;;;;;;8.23;7.40;;;19.30;99.90;;;;;;5014369;28;20421;-90
2021/07/01 11:12:44;;;;;;;9.57;8.57;;;19.30;99.90;;;;;;5028688;28;20432;-88
2021/07/01 11:15:11;;;;;;;9.43;8.63;;;19.30;99.90;;;;;;5012393;28;20427;-87
2021/07/01 11:17:40;;;;;;;8.37;7.47;;;19.60;99.90;;;;;;5011789;28;20565;-88
2021/07/01 11:20:20;;;;;;;8.73;7.93;;;19.60;99.90;;;;;;5016749;28;20531;-91
2021/07/01 11:22:57;;;;;;;7.60;5.47;;;19.90;99.90;;;;;;5030147;28;20514;-91
2021/07/01 11:25:37;;;;;;;7.97;6.90;;;20.20;99.90;;;;;;5030875;28;20910;-87
2021/07/01 11:28:14;;;;;;;5.63;5.13;;;20.30;99.90;;;;;;5033269;28;20459;-89
2021/07/01 11:30:53;;;;;;;6.20;5.60;;;20.40;99.90;;;;;;5033208;28;20926;-88
2021/07/01 11:33:20;;;;;;;6.30;5.80;;;20.60;99.90;;;;;;5032160;28;20433;-85
2021/07/01 11:35:47;;;;;;;5.07;4.67;;;20.60;99.90;;;;;;5032770;28;20414;-85
2021/07/01 11:38:31;;;;;;;4.87;4.30;;;20.40;99.90;;;;;;5031892;28;20478;-86
2021/07/01 11:41:04;;;;;;;5.50;5.00;;;20.30;99.90;;;;;;5031513;28;20422;-86
2021/07/01 11:43:31;;;;;;;4.80;3.90;;;20.30;99.90;;;;;;5032447;28;20452;-86
2021/07/01 11:45:57;;;;;;;6.00;4.60;;;20.40;99.90;;;;;;5037525;28;20431;-86
2021/07/01 11:48:25;;;;;;;5.40;4.30;;;20.50;99.90;;;;;;5031718;28;20490;-89
2021/07/01 11:50:51;;;;;;;5.00;4.23;;;20.50;99.90;;;;;;5032530;28;20418;-86
2021/07/01 11:53:19;;;;;;;7.83;4.67;;;20.60;99.90;;;;;;5017616;28;20439;-86
2021/07/01 11:55:47;;;;;;;6.63;4.97;;;20.70;99.90;;;;;;5012025;28;20443;-86
2021/07/01 11:58:13;;;;;;;4.50;4.10;;;20.70;99.90;;;;;;5012488;28;20471;-85
2021/07/01 12:00:39;;;;;;;4.17;3.70;;;21.00;99.90;;;;;;5012909;28;20420;-85
2021/07/01 12:03:05;;;;;;;4.23;3.60;;;21.00;99.90;;;;;;5013061;28;20447;-86
2021/07/01 12:05:32;;;;;;;5.80;4.00;;;21.10;99.90;;;;;;5011390;28;20471;-86
2021/07/01 12:07:58;;;;;;;4.37;3.97;;;21.00;99.90;;;;;;5011585;28;20185;-86
2021/07/01 12:10:25;;;;;;;4.43;3.60;;;21.10;99.90;;;;;;5018123;28;20452;-86
2021/07/01 12:12:51;;;;;;;4.20;3.80;;;21.30;99.90;;;;;;5032901;28;20420;-86
2021/07/01 12:15:17;;;;;;;4.77;3.40;;;21.40;99.90;;;;;;5031943;28;20523;-86
2021/07/01 12:18:05;;;;;;;3.67;2.80;;;21.30;99.90;;;;;;5033019;28;20434;-86
2021/07/01 12:20:41;;;;;;;3.70;2.80;;;21.10;99.90;;;;;;5033555;28;20486;-87
2021/07/01 12:23:13;;;;;;;5.50;2.87;;;21.20;99.90;;;;;;5033516;28;20507;-86
2021/07/01 12:25:41;;;;;;;3.60;3.03;;;21.30;99.90;;;;;;5028918;28;20417;-87
2021/07/01 12:28:11;;;;;;;3.77;3.47;;;21.50;99.90;;;;;;5016137;28;20555;-87
2021/07/01 12:30:57;;;;;;;3.57;3.27;;;21.50;99.90;;;;;;5011602;28;20426;-87
2021/07/01 12:33:57;;;;;;;3.47;2.30;;;21.60;99.90;;;;;;5012107;28;20424;-87
2021/07/01 12:36:44;;;;;;;3.43;3.13;;;21.30;99.90;;;;;;4993765;28;20516;-87
2021/07/01 12:39:11;;;;;;;6.20;2.90;;;21.20;99.90;;;;;;5029812;28;20504;-89
2021/07/01 12:41:52;;;;;;;4.30;3.07;;;21.00;99.90;;;;;;5029622;28;20450;-87
2021/07/01 12:44:43;;;;;;;3.10;2.80;;;20.80;99.90;;;;;;5019931;28;20429;-86